Time,TemperatureF,DewpointF,PressureIn,WindDirection,WindDirectionDegrees,WindSpeedMPH,WindSpeedGustMPH,Humidity,HourlyPrecipIn,Conditions,Clouds,dailyrainin,SoftwareType,DateUTC
2013-03-26 00:02:00,35.4,26.6,29.74,South,180,7.4,-999.0,70,-99.99,,,0.00,Acu-Link.com,2013-03-26 04:02:00,
2013-03-26 00:17:00,36.5,28.0,29.75,SW,225,8.3,-999.0,71,-99.99,,,0.00,Acu-Link.com,2013-03-26 04:17:00,
2013-03-26 00:33:00,35.2,26.8,29.75,WSW,247,4.3,-999.0,71,-99.99,,,0.00,Acu-Link.com,2013-03-26 04:33:00,
2013-03-26 00:48:00,35.2,27.1,29.75,SSW,202,10.3,-999.0,72,-99.99,,,0.00,Acu-Link.com,2013-03-26 04:48:00,
2013-03-26 01:03:00,35.2,27.1,29.76,South,180,6.3,-999.0,72,-99.99,,,0.00,Acu-Link.com,2013-03-26 05:03:00,
2013-03-26 01:18:00,35.2,27.1,29.77,SSW,202,1.1,-999.0,72,-99.99,,,0.00,Acu-Link.com,2013-03-26 05:18:00,
2013-03-26 01:33:00,35.2,27.1,29.77,SSW,202,2.2,-999.0,72,-99.99,,,0.00,Acu-Link.com,2013-03-26 05:33:00,
2013-03-26 01:48:00,35.2,27.1,29.77,NNW,337,1.6,-999.0,72,-99.99,,,0.00,Acu-Link.com,2013-03-26 05:48:00,
2013-03-26 02:04:00,35.2,27.1,29.78,SW,225,2.7,-999.0,72,-99.99,,,0.00,Acu-Link.com,2013-03-26 06:04:00,
2013-03-26 02:19:00,35.4,27.3,29.78,South,180,4.7,-999.0,72,-99.99,,,0.00,Acu-Link.com,2013-03-26 06:19:00,
2013-03-26 02:34:00,35.2,27.5,29.78,SSE,157,5.8,-999.0,73,-99.99,,,0.00,Acu-Link.com,2013-03-26 06:34:00,
2013-03-26 02:49:00,35.2,27.1,29.78,SW,225,6.3,-999.0,72,-99.99,,,0.00,Acu-Link.com,2013-03-26 06:49:00,
2013-03-26 03:04:00,35.2,27.1,29.78,SSW,202,5.1,-999.0,72,-99.99,,,0.00,Acu-Link.com,2013-03-26 07:04:00,
2013-03-26 03:20:00,35.4,27.0,29.78,SSW,202,6.3,-999.0,71,-99.99,,,0.00,Acu-Link.com,2013-03-26 07:20:00,
2013-03-26 03:35:00,35.2,26.8,29.79,SW,225,6.7,-999.0,71,-99.99,,,0.00,Acu-Link.com,2013-03-26 07:35:00,
2013-03-26 03:50:00,35.2,26.8,29.78,SW,225,4.7,-999.0,71,-99.99,,,0.00,Acu-Link.com,2013-03-26 07:50:00,
2013-03-26 04:05:00,35.2,26.8,29.79,SSW,202,1.6,-999.0,71,-99.99,,,0.00,Acu-Link.com,2013-03-26 08:05:00,
2013-03-26 04:21:00,35.2,26.8,29.79,SW,225,5.8,-999.0,71,-99.99,,,0.00,Acu-Link.com,2013-03-26 08:21:00,
2013-03-26 04:51:00,35.1,26.6,29.79,SSW,202,3.8,-999.0,71,-99.99,,,0.00,Acu-Link.com,2013-03-26 08:51:00,
2013-03-26 05:06:00,35.2,26.1,29.79,SW,225,3.8,-999.0,69,-99.99,,,0.00,Acu-Link.com,2013-03-26 09:06:00,
2013-03-26 05:21:00,35.2,26.1,29.80,SSW,202,4.3,-999.0,69,-99.99,,,0.00,Acu-Link.com,2013-03-26 09:21:00,
2013-03-26 05:37:00,35.1,26.3,29.80,SSW,202,4.3,-999.0,70,-99.99,,,0.00,Acu-Link.com,2013-03-26 09:37:00,
2013-03-26 05:52:00,35.1,26.3,29.81,WSW,247,3.1,-999.0,70,-99.99,,,0.00,Acu-Link.com,2013-03-26 09:52:00,
2013-03-26 06:07:00,34.9,26.1,29.81,SSW,202,2.7,-999.0,70,-99.99,,,0.00,Acu-Link.com,2013-03-26 10:07:00,
2013-03-26 06:22:00,35.2,26.8,29.81,SSE,157,4.3,-999.0,71,-99.99,,,0.00,Acu-Link.com,2013-03-26 10:22:00,
2013-03-26 06:37:00,35.1,26.6,29.82,SSW,202,4.7,-999.0,71,-99.99,,,0.00,Acu-Link.com,2013-03-26 10:37:00,
2013-03-26 06:53:00,35.1,27.0,29.83,SW,225,2.2,-999.0,72,-99.99,,,0.00,Acu-Link.com,2013-03-26 10:53:00,
2013-03-26 07:08:00,35.1,27.0,29.83,East,90,4.3,-999.0,72,-99.99,,,0.00,Acu-Link.com,2013-03-26 11:08:00,
2013-03-26 07:23:00,35.1,27.0,29.83,SW,225,1.6,-999.0,72,-99.99,,,0.00,Acu-Link.com,2013-03-26 11:23:00,
2013-03-26 07:38:00,35.1,27.6,29.84,West,270,4.7,-999.0,74,-99.99,,,0.00,Acu-Link.com,2013-03-26 11:38:00,
2013-03-26 07:53:00,35.1,27.6,29.85,SW,225,5.8,-999.0,74,-99.99,,,0.00,Acu-Link.com,2013-03-26 11:53:00,
2013-03-26 08:09:00,35.2,27.8,29.85,SW,225,1.1,-999.0,74,-99.99,,,0.00,Acu-Link.com,2013-03-26 12:09:00,
2013-03-26 08:24:00,35.4,28.3,29.85,SSW,202,1.6,-999.0,75,-99.99,,,0.00,Acu-Link.com,2013-03-26 12:24:00,
2013-03-26 08:39:00,35.6,28.5,29.86,SSW,202,3.1,-999.0,75,-99.99,,,0.00,Acu-Link.com,2013-03-26 12:39:00,
2013-03-26 08:54:00,36.0,29.1,29.86,South,180,3.1,-999.0,76,-99.99,,,0.00,Acu-Link.com,2013-03-26 12:54:00,
2013-03-26 09:09:00,36.3,28.5,29.86,South,180,3.8,-999.0,73,-99.99,,,0.00,Acu-Link.com,2013-03-26 13:09:00,
2013-03-26 09:25:00,38.7,30.4,29.87,ENE,67,2.2,-999.0,72,-99.99,,,0.00,Acu-Link.com,2013-03-26 13:25:00,
2013-03-26 09:40:00,38.7,29.7,29.87,SE,135,2.7,-999.0,70,-99.99,,,0.00,Acu-Link.com,2013-03-26 13:40:00,
2013-03-26 09:55:00,38.8,30.3,29.88,SW,225,0.0,-999.0,71,-99.99,,,0.00,Acu-Link.com,2013-03-26 13:55:00,
2013-03-26 10:10:00,39.0,29.0,29.88,NW,315,4.7,-999.0,67,-99.99,,,0.00,Acu-Link.com,2013-03-26 14:10:00,
2013-03-26 10:26:00,39.4,29.0,29.89,ESE,112,2.7,-999.0,66,-99.99,,,0.00,Acu-Link.com,2013-03-26 14:26:00,
2013-03-26 10:56:00,39.6,28.8,29.90,North,0,3.1,-999.0,65,-99.99,,,0.00,Acu-Link.com,2013-03-26 14:56:00,
2013-03-26 11:11:00,39.4,29.0,29.91,SW,225,3.1,-999.0,66,-99.99,,,0.00,Acu-Link.com,2013-03-26 15:11:00,
2013-03-26 11:26:00,39.4,28.6,29.92,SW,225,3.8,-999.0,65,-99.99,,,0.00,Acu-Link.com,2013-03-26 15:26:00,
2013-03-26 11:42:00,40.1,29.7,29.92,SSW,202,3.1,-999.0,66,-99.99,,,0.00,Acu-Link.com,2013-03-26 15:42:00,
2013-03-26 11:57:00,40.3,28.7,29.92,SW,225,5.1,-999.0,63,-99.99,,,0.00,Acu-Link.com,2013-03-26 15:57:00,
2013-03-26 12:12:00,40.1,28.1,29.93,ESE,112,2.2,-999.0,62,-99.99,,,0.00,Acu-Link.com,2013-03-26 16:12:00,
2013-03-26 12:27:00,40.1,27.7,29.93,SSW,202,2.2,-999.0,61,-99.99,,,0.00,Acu-Link.com,2013-03-26 16:27:00,
2013-03-26 12:42:00,39.9,28.7,29.93,SW,225,2.7,-999.0,64,-99.99,,,0.00,Acu-Link.com,2013-03-26 16:42:00,
2013-03-26 12:58:00,40.3,28.7,29.94,West,270,4.7,-999.0,63,-99.99,,,0.08,Acu-Link.com,2013-03-26 16:58:00,
2013-03-26 13:13:00,40.3,29.1,29.93,NNW,337,3.8,-999.0,64,-99.99,,,0.08,Acu-Link.com,2013-03-26 17:13:00,
2013-03-26 13:28:00,41.0,29.8,29.94,WNW,292,1.1,-999.0,64,-99.99,,,0.08,Acu-Link.com,2013-03-26 17:28:00,
2013-03-26 13:43:00,41.4,30.5,29.93,ESE,112,4.7,-999.0,65,-99.99,,,0.08,Acu-Link.com,2013-03-26 17:43:00,
2013-03-26 13:58:00,41.2,29.9,29.94,NE,45,1.6,-999.0,64,-99.99,,,0.08,Acu-Link.com,2013-03-26 17:58:00,
2013-03-26 14:14:00,40.3,30.2,29.94,NNW,337,3.1,-999.0,67,-99.99,,,0.08,Acu-Link.com,2013-03-26 18:14:00,
2013-03-26 14:29:00,45.1,31.3,29.94,NW,315,6.7,-999.0,58,-99.99,,,0.08,Acu-Link.com,2013-03-26 18:29:00,
2013-03-26 14:44:00,41.7,29.3,29.94,NE,45,4.3,-999.0,61,-99.99,,,0.08,Acu-Link.com,2013-03-26 18:44:00,
2013-03-26 14:59:00,41.7,28.9,29.95,West,270,3.8,-999.0,60,-99.99,,,0.08,Acu-Link.com,2013-03-26 18:59:00,
2013-03-26 15:15:00,43.0,29.6,29.94,NE,45,3.8,-999.0,59,-99.99,,,0.08,Acu-Link.com,2013-03-26 19:15:00,
2013-03-26 15:30:00,42.6,28.5,29.94,NE,45,4.3,-999.0,57,-99.99,,,0.08,Acu-Link.com,2013-03-26 19:30:00,
2013-03-26 15:45:00,42.4,28.3,29.94,NW,315,6.3,-999.0,57,-99.99,,,0.08,Acu-Link.com,2013-03-26 19:45:00,
2013-03-26 16:00:00,41.4,29.7,29.94,North,0,6.7,-999.0,63,-99.99,,,0.08,Acu-Link.com,2013-03-26 20:00:00,
2013-03-26 16:15:00,40.5,31.5,29.95,North,0,5.1,-999.0,70,-99.99,,,0.08,Acu-Link.com,2013-03-26 20:15:00,
2013-03-26 16:31:00,40.6,31.6,29.95,ENE,67,3.1,-999.0,70,-99.99,,,0.08,Acu-Link.com,2013-03-26 20:31:00,
2013-03-26 17:01:00,38.1,31.9,29.96,NE,45,4.3,-999.0,78,-99.99,,,0.08,Acu-Link.com,2013-03-26 21:01:00,
2013-03-26 17:16:00,38.5,32.2,29.98,North,0,1.1,-999.0,78,-99.99,,,0.08,Acu-Link.com,2013-03-26 21:16:00,
2013-03-26 17:31:00,38.8,31.6,29.98,SSE,157,3.8,-999.0,75,-99.99,,,0.08,Acu-Link.com,2013-03-26 21:31:00,
2013-03-26 17:47:00,40.6,33.0,29.98,South,180,3.8,-999.0,74,-99.99,,,0.08,Acu-Link.com,2013-03-26 21:47:00,
2013-03-26 18:02:00,40.8,31.1,29.98,SSE,157,4.7,-999.0,68,-99.99,,,0.08,Acu-Link.com,2013-03-26 22:02:00,
2013-03-26 18:17:00,40.6,28.3,29.99,West,270,4.7,-999.0,61,-99.99,,,0.08,Acu-Link.com,2013-03-26 22:17:00,
2013-03-26 18:32:00,40.6,27.9,29.99,ENE,67,2.7,-999.0,60,-99.99,,,0.08,Acu-Link.com,2013-03-26 22:32:00,
2013-03-26 18:47:00,39.2,27.3,30.00,NE,45,4.7,-999.0,62,-99.99,,,0.08,Acu-Link.com,2013-03-26 22:47:00,
2013-03-26 19:03:00,38.5,27.0,30.00,South,180,3.8,-999.0,63,-99.99,,,0.08,Acu-Link.com,2013-03-26 23:03:00,
2013-03-26 19:18:00,37.8,28.5,30.01,South,180,0.0,-999.0,69,-99.99,,,0.08,Acu-Link.com,2013-03-26 23:18:00,
2013-03-26 19:33:00,37.2,28.0,30.01,SW,225,1.6,-999.0,69,-99.99,,,0.08,Acu-Link.com,2013-03-26 23:33:00,
2013-03-26 19:48:00,36.7,28.5,30.01,SW,225,2.2,-999.0,72,-99.99,,,0.08,Acu-Link.com,2013-03-26 23:48:00,
2013-03-26 20:04:00,37.4,27.8,30.02,SW,225,2.7,-999.0,68,-99.99,,,0.08,Acu-Link.com,2013-03-27 00:04:00,
2013-03-26 20:19:00,37.9,27.2,30.03,SSW,202,2.7,-999.0,65,-99.99,,,0.08,Acu-Link.com,2013-03-27 00:19:00,
2013-03-26 20:34:00,37.4,27.5,30.03,SW,225,3.8,-999.0,67,-99.99,,,0.08,Acu-Link.com,2013-03-27 00:34:00,
2013-03-26 20:49:00,37.8,27.8,30.04,SW,225,3.8,-999.0,67,-99.99,,,0.08,Acu-Link.com,2013-03-27 00:49:00,
2013-03-26 21:04:00,37.4,28.5,30.04,South,180,6.3,-999.0,70,-99.99,,,0.08,Acu-Link.com,2013-03-27 01:04:00,
2013-03-26 21:20:00,37.2,28.7,30.04,SSW,202,2.7,-999.0,71,-99.99,,,0.08,Acu-Link.com,2013-03-27 01:20:00,
2013-03-26 21:35:00,37.2,28.7,30.05,SSW,202,4.3,-999.0,71,-99.99,,,0.08,Acu-Link.com,2013-03-27 01:35:00,
2013-03-26 21:50:00,37.4,28.2,30.06,WSW,247,2.7,-999.0,69,-99.99,,,0.08,Acu-Link.com,2013-03-27 01:50:00,
2013-03-26 22:05:00,37.4,28.2,30.07,SSW,202,1.6,-999.0,69,-99.99,,,0.08,Acu-Link.com,2013-03-27 02:05:00,
2013-03-26 22:20:00,37.0,28.2,30.07,WSW,247,2.7,-999.0,70,-99.99,,,0.08,Acu-Link.com,2013-03-27 02:20:00,
2013-03-26 22:36:00,36.9,28.0,30.07,SW,225,4.3,-999.0,70,-99.99,,,0.08,Acu-Link.com,2013-03-27 02:36:00,
2013-03-26 23:06:00,36.5,27.3,30.08,SW,225,2.2,-999.0,69,-99.99,,,0.08,Acu-Link.com,2013-03-27 03:06:00,
2013-03-26 23:21:00,36.5,27.3,30.08,NNW,337,1.1,-999.0,69,-99.99,,,0.08,Acu-Link.com,2013-03-27 03:21:00,
2013-03-26 23:36:00,36.7,27.8,30.08,SW,225,4.3,-999.0,70,-99.99,,,0.08,Acu-Link.com,2013-03-27 03:36:00,